Time;durP1;ratioP1;P1;durP2;ratioP2;P2;SDS_P1;SDS_P2;PMS_P1;PMS_P2;Temp;Humidity;BMP_temperature;BMP_pressure;BME280_temperature;BME280_humidity;BME280_pressure;Samples;Min_cycle;Max_cycle;Signal;HPM_P1;HPM_P2
2023/05/14 00:02:05;;;;;;;12.75;7.45;;;;;;;;;;6239340;23;20066;-83
2023/05/14 00:04:33;;;;;;;12.40;7.72;;;;;;;;;;6239469;23;20024;-83
2023/05/14 00:07:00;;;;;;;11.55;7.55;;;;;;;;;;6239364;23;20056;-83
2023/05/14 00:09:34;;;;;;;12.77;6.82;;;;;;;;;;6239614;23;20020;-82
2023/05/14 00:12:01;;;;;;;16.23;7.85;;;;;;;;;;6238719;23;20444;-83
2023/05/14 00:14:35;;;;;;;13.88;8.35;;;;;;;;;;6236345;23;20103;-83
2023/05/14 00:17:03;;;;;;;14.45;7.72;;;;;;;;;;6237492;23;20594;-83
2023/05/14 00:19:30;;;;;;;11.43;7.55;;;;;;;;;;6238917;22;20095;-83
2023/05/14 00:22:03;;;;;;;12.77;8.80;;;;;;;;;;6239583;23;20031;-83
2023/05/14 00:24:30;;;;;;;14.13;8.60;;;;;;;;;;6238606;23;20024;-83
2023/05/14 00:27:05;;;;;;;11.38;9.20;;;;;;;;;;6239743;23;20020;-82
2023/05/14 00:29:32;;;;;;;18.17;10.23;;;;;;;;;;6238709;23;20527;-83
2023/05/14 00:32:00;;;;;;;15.80;9.50;;;;;;;;;;6239875;23;20054;-80
2023/05/14 00:34:33;;;;;;;12.05;9.35;;;;;;;;;;6239281;23;20468;-82
2023/05/14 00:37:00;;;;;;;13.43;8.57;;;;;;;;;;6239358;23;20060;-80
2023/05/14 00:39:34;;;;;;;11.50;8.70;;;;;;;;;;6239392;23;20091;-80
2023/05/14 00:42:02;;;;;;;15.82;8.90;;;;;;;;;;6238968;23;20028;-81
2023/05/14 00:44:29;;;;;;;14.85;9.73;;;;;;;;;;6239065;22;20055;-80
2023/05/14 00:47:09;;;;;;;16.85;9.43;;;;;;;;;;6239406;23;20488;-80
2023/05/14 00:49:38;;;;;;;15.75;10.13;;;;;;;;;;6240303;23;20024;-80
2023/05/14 00:52:13;;;;;;;13.23;9.23;;;;;;;;;;6239987;23;20062;-80
2023/05/14 00:54:40;;;;;;;18.63;9.65;;;;;;;;;;6241499;23;20460;-80
2023/05/14 00:57:08;;;;;;;14.60;9.48;;;;;;;;;;6241308;22;20095;-80
2023/05/14 00:59:42;;;;;;;16.33;9.65;;;;;;;;;;6217174;23;20059;-81
2023/05/14 01:02:09;;;;;;;14.82;9.55;;;;;;;;;;6242749;23;20024;-81
2023/05/14 01:04:36;;;;;;;15.82;9.30;;;;;;;;;;6243237;23;20095;-81
2023/05/14 01:07:25;;;;;;;16.45;9.60;;;;;;;;;;6241946;23;20028;-80
2023/05/14 01:09:55;;;;;;;17.10;9.10;;;;;;;;;;6240721;23;20300;-81
2023/05/14 01:12:35;;;;;;;15.43;9.68;;;;;;;;;;6216893;23;20123;-80
2023/05/14 01:15:12;;;;;;;14.25;9.52;;;;;;;;;;6240501;23;20107;-80
2023/05/14 01:17:49;;;;;;;12.80;9.40;;;;;;;;;;6242127;23;20027;-81
2023/05/14 01:20:17;;;;;;;22.02;9.85;;;;;;;;;;6214401;23;20020;-81
2023/05/14 01:22:51;;;;;;;17.88;9.70;;;;;;;;;;6240774;23;20047;-81
2023/05/14 01:25:18;;;;;;;16.75;10.00;;;;;;;;;;6240162;23;20099;-80
2023/05/14 01:28:12;;;;;;;15.10;9.85;;;;;;;;;;6240529;23;20110;-81
2023/05/14 01:30:45;;;;;;;14.65;9.27;;;;;;;;;;6215903;23;20025;-80
2023/05/14 01:33:13;;;;;;;16.52;9.43;;;;;;;;;;6241432;23;20031;-80
2023/05/14 01:35:48;;;;;;;11.27;8.13;;;;;;;;;;6241782;23;20055;-80
2023/05/14 01:38:17;;;;;;;15.95;9.50;;;;;;;;;;6240575;23;20532;-81
2023/05/14 01:40:45;;;;;;;13.68;8.63;;;;;;;;;;6240039;23;20024;-82
2023/05/14 01:43:33;;;;;;;18.42;8.25;;;;;;;;;;6240228;23;20103;-81
2023/05/14 01:46:07;;;;;;;11.93;8.70;;;;;;;;;;6240264;23;20131;-81
2023/05/14 01:48:41;;;;;;;10.38;8.27;;;;;;;;;;6238933;23;20095;-81
2023/05/14 01:51:09;;;;;;;10.73;8.40;;;;;;;;;;6241349;23;20103;-81
2023/05/14 01:53:42;;;;;;;13.75;8.98;;;;;;;;;;6241281;23;20024;-82
2023/05/14 01:56:09;;;;;;;16.40;8.25;;;;;;;;;;6213928;23;20418;-80
2023/05/14 01:58:36;;;;;;;14.10;8.60;;;;;;;;;;6240373;23;20055;-80
2023/05/14 02:01:10;;;;;;;17.13;8.48;;;;;;;;;;6240470;23;20042;-80
2023/05/14 02:03:38;;;;;;;11.48;8.85;;;;;;;;;;6239915;23;20747;-81
2023/05/14 02:06:11;;;;;;;13.52;8.98;;;;;;;;;;6240056;23;20099;-80
2023/05/14 02:08:39;;;;;;;11.50;8.75;;;;;;;;;;6240493;23;20052;-80
2023/05/14 02:11:06;;;;;;;12.05;9.48;;;;;;;;;;6239646;23;20047;-80
2023/05/14 02:13:39;;;;;;;15.07;9.43;;;;;;;;;;6241318;23;20027;-81
2023/05/14 02:16:07;;;;;;;13.18;9.00;;;;;;;;;;6240136;23;20059;-80
2023/05/14 02:18:40;;;;;;;14.00;8.57;;;;;;;;;;6240007;22;20074;-80
2023/05/14 02:21:08;;;;;;;14.82;8.27;;;;;;;;;;6240759;23;20028;-80
2023/05/14 02:23:35;;;;;;;21.00;9.10;;;;;;;;;;6239807;23;20062;-80
2023/05/14 02:26:09;;;;;;;15.45;9.90;;;;;;;;;;6240213;23;20020;-80
2023/05/14 02:28:36;;;;;;;;;;;;;;;;;;6240859;23;20626;-80
2023/05/14 02:31:03;;;;;;;10.63;9.52;;;;;;;;;;6239868;23;20023;-81
2023/05/14 02:33:37;;;;;;;14.30;9.80;;;;;;;;;;6239332;23;20034;-80
2023/05/14 02:36:05;;;;;;;18.13;9.13;;;;;;;;;;6240342;23;20354;-80
2023/05/14 02:38:32;;;;;;;15.85;9.30;;;;;;;;;;6213240;23;20070;-80
2023/05/14 02:41:05;;;;;;;15.52;10.07;;;;;;;;;;6239294;23;20567;-80
2023/05/14 02:43:40;;;;;;;16.60;9.18;;;;;;;;;;6239265;23;20393;-81
2023/05/14 02:46:13;;;;;;;19.95;9.68;;;;;;;;;;6240760;23;20020;-80
2023/05/14 02:48:41;;;;;;;15.43;8.43;;;;;;;;;;6239881;23;20838;-80
2023/05/14 02:51:08;;;;;;;12.98;8.55;;;;;;;;;;6240531;23;20103;-80
2023/05/14 02:53:41;;;;;;;14.98;9.70;;;;;;;;;;6239465;23;20464;-80
2023/05/14 02:56:09;;;;;;;25.08;9.40;;;;;;;;;;6239463;22;20092;-80
2023/05/14 02:58:42;;;;;;;13.75;9.15;;;;;;;;;;6239418;23;20099;-80
2023/05/14 03:01:10;;;;;;;13.73;10.23;;;;;;;;;;6239500;23;20062;-79
2023/05/14 03:03:37;;;;;;;;;;;;;;;;;;6239116;23;20036;-79
2023/05/14 03:06:11;;;;;;;12.98;9.73;;;;;;;;;;6240007;23;20275;-79
2023/05/14 03:08:38;;;;;;;12.70;9.18;;;;;;;;;;6239720;23;20050;-79
2023/05/14 03:11:06;;;;;;;10.38;9.30;;;;;;;;;;6236908;23;20020;-79
2023/05/14 03:13:39;;;;;;;13.73;10.05;;;;;;;;;;6240420;23;20353;-80
2023/05/14 03:16:07;;;;;;;16.92;9.60;;;;;;;;;;6240320;23;20075;-79
2023/05/14 03:18:35;;;;;;;16.33;9.77;;;;;;;;;;6240759;22;20030;-79
2023/05/14 03:21:09;;;;;;;14.48;9.82;;;;;;;;;;6240797;23;20022;-79
2023/05/14 03:23:36;;;;;;;13.45;9.18;;;;;;;;;;6239655;23;20058;-80
2023/05/14 03:26:09;;;;;;;10.52;7.75;;;;;;;;;;6238673;23;20121;-79
2023/05/14 03:28:36;;;;;;;14.52;9.57;;;;;;;;;;6239655;23;20067;-79
2023/05/14 03:31:04;;;;;;;12.93;9.18;;;;;;;;;;6239889;23;20103;-79
2023/05/14 03:33:37;;;;;;;17.10;8.63;;;;;;;;;;6239548;23;20078;-79
2023/05/14 03:36:05;;;;;;;16.40;8.75;;;;;;;;;;6239044;23;20137;-79
2023/05/14 03:38:38;;;;;;;12.00;9.30;;;;;;;;;;6239937;23;20464;-79
2023/05/14 03:41:06;;;;;;;15.25;9.18;;;;;;;;;;6238472;23;20020;-79
2023/05/14 03:43:33;;;;;;;10.70;9.00;;;;;;;;;;6237553;22;20438;-80
2023/05/14 03:46:14;;;;;;;13.88;8.63;;;;;;;;;;6239153;23;20024;-80
2023/05/14 03:48:41;;;;;;;13.13;9.02;;;;;;;;;;6239137;23;20576;-80
2023/05/14 03:51:15;;;;;;;10.77;9.18;;;;;;;;;;6239638;23;20031;-80
2023/05/14 03:53:43;;;;;;;13.80;9.27;;;;;;;;;;6239331;23;20035;-79
2023/05/14 03:56:10;;;;;;;10.10;8.27;;;;;;;;;;6238947;22;20077;-80
2023/05/14 03:58:43;;;;;;;13.63;8.38;;;;;;;;;;6238181;23;20478;-81
2023/05/14 04:01:11;;;;;;;22.52;8.32;;;;;;;;;;6239356;23;20493;-80
2023/05/14 04:03:44;;;;;;;11.80;8.10;;;;;;;;;;6238068;23;20059;-83
2023/05/14 04:06:12;;;;;;;;;;;;;;;;;;6240178;23;20023;-81
2023/05/14 04:08:39;;;;;;;10.98;8.48;;;;;;;;;;6238896;23;19990;-83
2023/05/14 04:11:12;;;;;;;12.73;8.13;;;;;;;;;;6239177;23;20047;-83
2023/05/14 04:13:39;;;;;;;17.27;8.55;;;;;;;;;;6238269;23;20091;-83
2023/05/14 04:16:13;;;;;;;18.35;9.40;;;;;;;;;;6239368;23;20099;-82
2023/05/14 04:18:41;;;;;;;9.82;8.32;;;;;;;;;;6212566;23;20531;-83
2023/05/14 04:21:08;;;;;;;9.60;7.68;;;;;;;;;;6239038;23;20517;-83
2023/05/14 04:23:41;;;;;;;12.80;8.20;;;;;;;;;;6238720;23;20051;-81
2023/05/14 04:26:08;;;;;;;9.73;7.70;;;;;;;;;;6239853;23;20517;-81
2023/05/14 04:28:43;;;;;;;9.25;7.70;;;;;;;;;;6241949;23;20048;-81
2023/05/14 04:31:10;;;;;;;11.18;7.93;;;;;;;;;;6239272;23;20107;-81
2023/05/14 04:33:37;;;;;;;12.60;8.23;;;;;;;;;;6241084;23;20024;-82
2023/05/14 04:36:11;;;;;;;20.45;8.23;;;;;;;;;;6242254;23;20102;-81
2023/05/14 04:38:38;;;;;;;12.27;8.15;;;;;;;;;;6241877;23;20024;-81
2023/05/14 04:41:06;;;;;;;9.93;8.10;;;;;;;;;;6240075;23;20127;-81
2023/05/14 04:43:53;;;;;;;11.57;8.75;;;;;;;;;;6239940;23;20055;-81
2023/05/14 04:46:27;;;;;;;11.17;8.00;;;;;;;;;;6241058;23;20058;-81
2023/05/14 04:49:01;;;;;;;13.20;7.97;;;;;;;;;;6214541;23;20284;-81
2023/05/14 04:51:29;;;;;;;11.07;7.57;;;;;;;;;;6240315;23;20472;-81
2023/05/14 04:53:56;;;;;;;15.13;8.02;;;;;;;;;;6239888;22;20078;-81
2023/05/14 04:56:29;;;;;;;11.25;7.40;;;;;;;;;;6240372;23;20032;-81
2023/05/14 04:58:56;;;;;;;11.38;7.53;;;;;;;;;;6241664;23;20099;-81
2023/05/14 05:01:30;;;;;;;11.50;7.38;;;;;;;;;;6239798;23;20017;-81
2023/05/14 05:03:58;;;;;;;11.18;7.45;;;;;;;;;;6239056;23;20024;-81
2023/05/14 05:06:25;;;;;;;11.13;7.55;;;;;;;;;;6214403;23;20024;-81
2023/05/14 05:08:58;;;;;;;19.17;7.72;;;;;;;;;;6241858;23;20107;-81
2023/05/14 05:11:28;;;;;;;11.13;6.85;;;;;;;;;;6240738;23;20261;-81
2023/05/14 05:14:01;;;;;;;15.50;6.90;;;;;;;;;;6241732;23;20391;-81
2023/05/14 05:16:29;;;;;;;16.58;7.72;;;;;;;;;;6214553;23;20020;-82
2023/05/14 05:18:56;;;;;;;10.85;6.93;;;;;;;;;;6214286;23;20051;-81
2023/05/14 05:21:29;;;;;;;13.20;6.53;;;;;;;;;;6241424;23;20020;-80
2023/05/14 05:23:56;;;;;;;10.65;7.63;;;;;;;;;;6239959;23;20089;-80
2023/05/14 05:26:30;;;;;;;10.65;7.63;;;;;;;;;;6240837;23;20050;-81
2023/05/14 05:28:58;;;;;;;11.52;7.43;;;;;;;;;;6241001;23;20098;-83
2023/05/14 05:31:25;;;;;;;15.48;7.05;;;;;;;;;;6241901;23;20458;-84
2023/05/14 05:33:59;;;;;;;9.10;7.85;;;;;;;;;;6240418;23;20036;-83
2023/05/14 05:36:26;;;;;;;;;;;;;;;;;;6215675;23;20337;-83
2023/05/14 05:38:59;;;;;;;12.23;8.57;;;;;;;;;;6239462;23;19994;-83
2023/05/14 05:41:28;;;;;;;13.13;6.70;;;;;;;;;;6239954;23;20099;-83
2023/05/14 05:43:56;;;;;;;9.32;6.60;;;;;;;;;;6240093;22;20334;-83
2023/05/14 05:46:29;;;;;;;9.25;6.70;;;;;;;;;;6239550;23;20098;-81
2023/05/14 05:48:57;;;;;;;6.55;5.75;;;;;;;;;;6241202;23;20028;-81
2023/05/14 05:51:31;;;;;;;10.32;6.22;;;;;;;;;;6240810;23;20068;-81
2023/05/14 05:53:59;;;;;;;9.10;5.72;;;;;;;;;;6240189;22;20024;-83
2023/05/14 05:56:26;;;;;;;6.68;5.65;;;;;;;;;;6239079;23;20063;-84
2023/05/14 05:58:59;;;;;;;10.18;5.70;;;;;;;;;;6240592;23;20426;-84
2023/05/14 06:01:27;;;;;;;18.50;6.95;;;;;;;;;;6240083;23;20364;-82
2023/05/14 06:04:00;;;;;;;10.90;6.32;;;;;;;;;;6236542;23;20046;-80
2023/05/14 06:06:28;;;;;;;9.07;5.43;;;;;;;;;;6239991;23;20078;-82
2023/05/14 06:08:55;;;;;;;8.38;6.15;;;;;;;;;;6236328;23;20663;-82
2023/05/14 06:11:28;;;;;;;8.32;5.85;;;;;;;;;;6240482;23;20074;-83
2023/05/14 06:13:56;;;;;;;9.82;5.85;;;;;;;;;;6240488;23;20339;-82
2023/05/14 06:16:23;;;;;;;13.13;6.22;;;;;;;;;;6240475;22;20024;-82
2023/05/14 06:18:56;;;;;;;6.55;5.45;;;;;;;;;;6240734;23;20020;-83
2023/05/14 06:21:24;;;;;;;10.88;5.93;;;;;;;;;;6240614;23;20024;-82
2023/05/14 06:23:57;;;;;;;9.90;5.65;;;;;;;;;;6238950;23;20063;-82
2023/05/14 06:26:25;;;;;;;12.20;5.50;;;;;;;;;;6238648;23;20246;-80
2023/05/14 06:28:52;;;;;;;9.00;5.57;;;;;;;;;;6237468;23;20464;-80
2023/05/14 06:31:25;;;;;;;11.15;5.28;;;;;;;;;;6237665;23;20027;-81
2023/05/14 06:33:56;;;;;;;14.63;5.20;;;;;;;;;;6239794;23;20548;-81
2023/05/14 06:36:29;;;;;;;8.45;4.78;;;;;;;;;;6238399;23;20126;-82
2023/05/14 06:38:57;;;;;;;5.47;4.30;;;;;;;;;;6239629;23;20054;-84
2023/05/14 06:41:24;;;;;;;10.15;4.03;;;;;;;;;;6238867;23;20095;-82
2023/05/14 06:44:12;;;;;;;8.10;3.50;;;;;;;;;;6207469;23;20136;-82
2023/05/14 06:46:46;;;;;;;8.63;3.50;;;;;;;;;;6208989;23;20021;-82
2023/05/14 06:49:20;;;;;;;9.02;3.38;;;;;;;;;;6209825;23;20027;-82
2023/05/14 06:51:48;;;;;;;6.75;3.20;;;;;;;;;;6209705;23;20099;-82
2023/05/14 06:54:15;;;;;;;12.23;3.58;;;;;;;;;;6209374;23;20056;-82
2023/05/14 06:56:49;;;;;;;8.15;3.45;;;;;;;;;;6209103;23;20048;-82
2023/05/14 06:59:16;;;;;;;3.92;2.53;;;;;;;;;;6209319;23;20020;-83
2023/05/14 07:01:43;;;;;;;5.97;3.25;;;;;;;;;;6208668;23;20478;-82
2023/05/14 07:04:16;;;;;;;9.27;2.78;;;;;;;;;;6208644;23;20629;-81
2023/05/14 07:06:44;;;;;;;6.57;3.33;;;;;;;;;;6209990;23;20785;-83
2023/05/14 07:09:17;;;;;;;7.30;3.20;;;;;;;;;;6208883;23;20056;-83
2023/05/14 07:11:45;;;;;;;7.28;3.22;;;;;;;;;;6208616;23;20051;-82
2023/05/14 07:14:12;;;;;;;8.43;3.05;;;;;;;;;;6207436;23;20059;-82
2023/05/14 07:16:45;;;;;;;6.38;3.25;;;;;;;;;;6208861;23;20095;-81
2023/05/14 07:19:13;;;;;;;8.20;3.63;;;;;;;;;;6209081;23;20034;-82
2023/05/14 07:21:40;;;;;;;3.40;3.05;;;;;;;;;;6210537;23;20371;-82
2023/05/14 07:24:13;;;;;;;9.43;3.42;;;;;;;;;;6209041;23;20099;-83
2023/05/14 07:26:40;;;;;;;11.00;3.22;;;;;;;;;;6208975;23;20103;-82
2023/05/14 07:29:14;;;;;;;9.80;3.08;;;;;;;;;;6209329;23;20044;-83
2023/05/14 07:31:42;;;;;;;6.97;3.20;;;;;;;;;;6209855;23;20095;-81
2023/05/14 07:34:10;;;;;;;;;;;;;;;;;;6209402;23;20020;-83
2023/05/14 07:36:44;;;;;;;6.38;3.03;;;;;;;;;;6209258;23;19930;-82
2023/05/14 07:39:11;;;;;;;6.55;2.78;;;;;;;;;;6209111;23;20027;-82
2023/05/14 07:41:38;;;;;;;7.32;2.70;;;;;;;;;;6208628;23;20024;-82
2023/05/14 07:44:18;;;;;;;4.95;2.50;;;;;;;;;;6208194;23;20099;-82
2023/05/14 07:46:46;;;;;;;10.43;3.20;;;;;;;;;;6209612;23;20021;-82
2023/05/14 07:49:20;;;;;;;6.55;2.67;;;;;;;;;;6210125;23;20021;-83
2023/05/14 07:51:47;;;;;;;6.80;2.92;;;;;;;;;;6209918;23;20042;-84
2023/05/14 07:54:14;;;;;;;7.57;3.00;;;;;;;;;;6209010;23;20095;-83
2023/05/14 07:56:47;;;;;;;6.22;3.20;;;;;;;;;;6208764;23;20048;-82
2023/05/14 07:59:14;;;;;;;9.32;2.90;;;;;;;;;;6208956;23;20127;-84
2023/05/14 08:01:48;;;;;;;15.23;3.22;;;;;;;;;;6207189;23;20760;-85
2023/05/14 08:04:16;;;;;;;11.82;3.33;;;;;;;;;;6209353;23;20082;-84
2023/05/14 08:06:44;;;;;;;6.18;3.08;;;;;;;;;;6209851;23;20028;-84
2023/05/14 08:09:17;;;;;;;8.02;2.92;;;;;;;;;;6209069;23;20327;-84
2023/05/14 08:11:44;;;;;;;8.45;3.35;;;;;;;;;;6208918;23;20509;-84
2023/05/14 08:14:20;;;;;;;7.90;2.85;;;;;;;;;;6209070;23;20060;-83
2023/05/14 08:16:54;;;;;;;6.93;2.80;;;;;;;;;;6208558;23;20056;-84
2023/05/14 08:19:23;;;;;;;5.50;3.08;;;;;;;;;;6209063;23;20024;-83
2023/05/14 08:21:50;;;;;;;9.43;3.28;;;;;;;;;;6209248;23;20096;-83
2023/05/14 08:24:23;;;;;;;7.72;2.90;;;;;;;;;;6208696;23;20034;-84
2023/05/14 08:26:59;;;;;;;8.63;2.85;;;;;;;;;;6209596;23;20048;-84
2023/05/14 08:29:34;;;;;;;15.30;3.30;;;;;;;;;;6207716;23;20397;-85
2023/05/14 08:32:01;;;;;;;8.80;3.08;;;;;;;;;;6208440;23;20024;-84
2023/05/14 08:34:45;;;;;;;7.18;2.92;;;;;;;;;;6208749;23;20021;-86
2023/05/14 08:37:19;;;;;;;15.57;3.05;;;;;;;;;;6209314;23;20071;-84
2023/05/14 08:39:47;;;;;;;5.32;2.75;;;;;;;;;;6209508;23;20099;-83
2023/05/14 08:42:23;;;;;;;5.90;3.10;;;;;;;;;;6207955;23;20298;-84
2023/05/14 08:45:03;;;;;;;6.63;3.00;;;;;;;;;;6229962;23;20102;-84
2023/05/14 08:47:47;;;;;;;8.00;2.70;;;;;;;;;;6239695;23;20090;-83
2023/05/14 08:50:14;;;;;;;7.55;3.65;;;;;;;;;;6239209;23;20024;-84
2023/05/14 08:52:50;;;;;;;9.93;3.50;;;;;;;;;;6237604;22;20064;-83
2023/05/14 08:55:17;;;;;;;5.38;3.13;;;;;;;;;;6239252;23;20028;-83
2023/05/14 08:57:51;;;;;;;10.80;3.20;;;;;;;;;;6238930;23;20020;-83
2023/05/14 09:00:18;;;;;;;5.65;3.15;;;;;;;;;;6238573;23;20406;-84
2023/05/14 09:02:53;;;;;;;8.30;3.25;;;;;;;;;;6237564;23;20020;-82
2023/05/14 09:05:21;;;;;;;;;;;;;;;;;;6238737;23;20131;-83
2023/05/14 09:07:48;;;;;;;7.50;2.90;;;;;;;;;;6237845;23;20391;-84
2023/05/14 09:10:21;;;;;;;11.25;3.40;;;;;;;;;;6239270;23;20024;-84
2023/05/14 09:12:50;;;;;;;7.82;3.60;;;;;;;;;;6240953;23;20078;-83
2023/05/14 09:15:26;;;;;;;7.03;3.10;;;;;;;;;;6238614;22;20095;-82
2023/05/14 09:17:53;;;;;;;7.50;3.00;;;;;;;;;;6239270;23;20055;-81
2023/05/14 09:20:21;;;;;;;;;;;;;;;;;;6238992;23;20028;-81
2023/05/14 09:22:55;;;;;;;7.65;3.15;;;;;;;;;;6239505;23;19919;-84
2023/05/14 09:25:30;;;;;;;5.90;3.38;;;;;;;;;;6240529;23;20024;-83
2023/05/14 09:28:06;;;;;;;10.05;3.80;;;;;;;;;;6237648;23;20023;-83
2023/05/14 09:30:36;;;;;;;10.50;2.97;;;;;;;;;;6238053;23;20020;-83
2023/05/14 09:33:03;;;;;;;8.25;3.10;;;;;;;;;;6238545;23;20661;-82
2023/05/14 09:35:44;;;;;;;7.35;3.10;;;;;;;;;;6240320;23;20520;-83
2023/05/14 09:38:12;;;;;;;8.00;3.55;;;;;;;;;;6212475;23;20086;-83
2023/05/14 09:40:46;;;;;;;14.80;4.03;;;;;;;;;;6239845;23;20024;-82
2023/05/14 09:43:13;;;;;;;10.23;3.28;;;;;;;;;;6240279;23;20060;-83
2023/05/14 09:45:46;;;;;;;10.52;3.72;;;;;;;;;;6238376;22;20059;-83
2023/05/14 09:48:21;;;;;;;7.18;3.53;;;;;;;;;;6240189;23;20082;-81
2023/05/14 09:50:48;;;;;;;9.35;3.22;;;;;;;;;;6240469;22;20083;-80
2023/05/14 09:53:22;;;;;;;8.32;3.33;;;;;;;;;;6240851;23;20030;-81
2023/05/14 09:55:49;;;;;;;9.98;3.28;;;;;;;;;;6241135;23;20032;-82
2023/05/14 09:58:16;;;;;;;5.80;3.10;;;;;;;;;;6214089;23;20055;-80
2023/05/14 10:00:53;;;;;;;10.10;3.58;;;;;;;;;;6240973;23;20094;-81
2023/05/14 10:03:21;;;;;;;6.85;3.50;;;;;;;;;;6240155;23;20050;-80
2023/05/14 10:05:58;;;;;;;8.55;3.50;;;;;;;;;;6240336;23;20020;-80
2023/05/14 10:08:26;;;;;;;7.47;3.50;;;;;;;;;;6239783;23;20066;-82
2023/05/14 10:10:54;;;;;;;7.45;3.20;;;;;;;;;;6239857;23;20027;-81
2023/05/14 10:13:31;;;;;;;8.43;3.45;;;;;;;;;;6238593;22;20066;-82
2023/05/14 10:16:04;;;;;;;12.80;3.60;;;;;;;;;;6240932;23;20020;-81
2023/05/14 10:18:42;;;;;;;11.98;3.60;;;;;;;;;;6239322;23;20095;-82
2023/05/14 10:21:10;;;;;;;8.77;3.63;;;;;;;;;;6239713;23;20093;-82
2023/05/14 11:59:38;;;;;;;4.70;2.63;;;;;;;;;;5831944;22;8656319;-81
2023/05/14 12:02:14;;;;;;;6.00;2.78;;;;;;;;;;6184609;23;20119;-81
2023/05/14 12:04:41;;;;;;;7.53;2.60;;;;;;;;;;6185615;23;20473;-81
2023/05/14 12:07:10;;;;;;;2.75;2.25;;;;;;;;;;6185559;23;20021;-83
2023/05/14 12:09:48;;;;;;;4.60;2.55;;;;;;;;;;6185871;23;20024;-81
2023/05/14 12:12:19;;;;;;;5.75;2.53;;;;;;;;;;6186564;23;20036;-79
2023/05/14 12:14:52;;;;;;;5.20;2.30;;;;;;;;;;6187682;23;20534;-80
2023/05/14 12:17:20;;;;;;;4.47;2.75;;;;;;;;;;6186763;23;20488;-81
2023/05/14 12:19:56;;;;;;;4.95;2.72;;;;;;;;;;6186926;23;20033;-81
2023/05/14 12:22:23;;;;;;;6.47;2.47;;;;;;;;;;6186737;23;20055;-80
2023/05/14 12:24:59;;;;;;;5.00;2.42;;;;;;;;;;6073774;23;20019;-79
2023/05/14 12:27:27;;;;;;;9.70;2.90;;;;;;;;;;6069602;23;20063;-80
2023/05/14 12:30:02;;;;;;;5.78;2.72;;;;;;;;;;6069930;23;20105;-80
2023/05/14 12:32:41;;;;;;;7.70;3.38;;;;;;;;;;6069889;23;20053;-81
2023/05/14 12:35:09;;;;;;;6.97;2.90;;;;;;;;;;6068651;23;20034;-81
2023/05/14 12:37:43;;;;;;;5.97;3.28;;;;;;;;;;6064421;23;20658;-80
2023/05/14 12:40:10;;;;;;;9.48;3.35;;;;;;;;;;6064017;23;20062;-80
2023/05/14 12:42:37;;;;;;;6.35;2.90;;;;;;;;;;6063032;23;20097;-81
2023/05/14 12:45:11;;;;;;;12.32;3.35;;;;;;;;;;6062180;23;20555;-81
2023/05/14 12:47:38;;;;;;;6.32;2.90;;;;;;;;;;6062354;23;20062;-81
2023/05/14 12:50:12;;;;;;;11.40;3.05;;;;;;;;;;6062023;23;20027;-80
2023/05/14 12:52:39;;;;;;;7.68;3.13;;;;;;;;;;6062650;23;20133;-80
2023/05/14 12:55:09;;;;;;;7.78;3.30;;;;;;;;;;6064474;23;20026;-80
2023/05/14 12:57:57;;;;;;;11.17;3.03;;;;;;;;;;6070604;23;20457;-81
2023/05/14 13:00:31;;;;;;;11.85;3.58;;;;;;;;;;6120921;23;20289;-81
2023/05/14 13:03:06;;;;;;;7.50;2.95;;;;;;;;;;6121215;23;20029;-81
2023/05/14 13:05:33;;;;;;;;;;;;;;;;;;6121544;23;20032;-80
2023/05/14 13:08:02;;;;;;;9.23;3.47;;;;;;;;;;6121124;23;19959;-81
2023/05/14 13:10:36;;;;;;;7.70;3.67;;;;;;;;;;6121344;23;20113;-80
2023/05/14 13:13:03;;;;;;;6.05;3.55;;;;;;;;;;6120965;23;20069;-81
2023/05/14 13:15:32;;;;;;;11.38;3.00;;;;;;;;;;6121835;23;20105;-81
2023/05/14 13:18:06;;;;;;;7.38;2.97;;;;;;;;;;6119257;23;20522;-81
2023/05/14 13:20:33;;;;;;;;;;;;;;;;;;6117694;23;20030;-81
2023/05/14 13:23:09;;;;;;;8.00;2.60;;;;;;;;;;6119417;23;20404;-80
2023/05/14 13:25:36;;;;;;;;;;;;;;;;;;6119380;23;20032;-81
2023/05/14 13:28:03;;;;;;;7.53;2.20;;;;;;;;;;6119538;23;20370;-79
2023/05/14 13:30:38;;;;;;;5.28;2.00;;;;;;;;;;6094619;23;20406;-80
2023/05/14 13:33:05;;;;;;;11.50;2.08;;;;;;;;;;6118975;23;20028;-80
2023/05/14 13:35:33;;;;;;;8.30;2.30;;;;;;;;;;6120865;23;20026;-79
2023/05/14 13:38:07;;;;;;;6.28;2.00;;;;;;;;;;6119998;23;20380;-82
2023/05/14 13:40:34;;;;;;;3.88;1.70;;;;;;;;;;6095401;23;20243;-82
2023/05/14 13:43:01;;;;;;;7.78;2.13;;;;;;;;;;6119354;23;20060;-83
2023/05/14 13:45:36;;;;;;;7.75;2.13;;;;;;;;;;6120455;23;20061;-82
2023/05/14 13:48:03;;;;;;;4.47;2.00;;;;;;;;;;6119157;23;20097;-82
2023/05/14 13:50:30;;;;;;;6.35;2.22;;;;;;;;;;6120059;23;20053;-82
2023/05/14 13:53:03;;;;;;;7.00;2.25;;;;;;;;;;6120239;23;20394;-81
2023/05/14 13:55:31;;;;;;;4.47;2.33;;;;;;;;;;6119497;23;20025;-82
2023/05/14 13:58:17;;;;;;;2.97;2.00;;;;;;;;;;6117547;23;20323;-82
2023/05/14 14:00:52;;;;;;;9.60;2.40;;;;;;;;;;6120193;23;20084;-83
2023/05/14 14:03:26;;;;;;;7.45;2.60;;;;;;;;;;6120071;23;20093;-82
2023/05/14 14:05:53;;;;;;;5.57;2.35;;;;;;;;;;6093998;23;20101;-81
2023/05/14 14:08:20;;;;;;;4.32;2.50;;;;;;;;;;6119048;23;20096;-82
2023/05/14 14:10:54;;;;;;;4.40;2.30;;;;;;;;;;6119111;23;20026;-82
2023/05/14 14:13:21;;;;;;;4.82;2.40;;;;;;;;;;6117071;23;20068;-82
2023/05/14 14:15:54;;;;;;;3.65;2.80;;;;;;;;;;6117992;23;20026;-82
2023/05/14 14:18:22;;;;;;;4.90;2.33;;;;;;;;;;6092663;23;20081;-82
2023/05/14 14:20:49;;;;;;;3.90;2.42;;;;;;;;;;6120015;23;20093;-83
2023/05/14 14:23:23;;;;;;;5.32;2.42;;;;;;;;;;6118928;23;20028;-82
2023/05/14 14:25:50;;;;;;;5.13;2.42;;;;;;;;;;6119148;23;20411;-82
2023/05/14 14:28:24;;;;;;;4.13;2.22;;;;;;;;;;6119161;23;20105;-82
2023/05/14 14:30:51;;;;;;;3.92;2.40;;;;;;;;;;6120065;23;20029;-82
2023/05/14 14:33:18;;;;;;;4.18;2.40;;;;;;;;;;6118963;23;20018;-83
2023/05/14 14:35:52;;;;;;;6.45;2.45;;;;;;;;;;6118568;23;20078;-83
2023/05/14 14:38:19;;;;;;;3.95;2.65;;;;;;;;;;6119593;23;20339;-83
2023/05/14 14:40:53;;;;;;;5.45;2.60;;;;;;;;;;6121235;23;20049;-83
2023/05/14 14:43:20;;;;;;;2.65;2.45;;;;;;;;;;6119476;23;20459;-83
2023/05/14 14:45:47;;;;;;;4.88;2.10;;;;;;;;;;6119184;23;20145;-82
2023/05/14 14:48:33;;;;;;;7.95;2.53;;;;;;;;;;6119328;23;20022;-83
2023/05/14 14:51:00;;;;;;;3.47;2.50;;;;;;;;;;6120392;23;20022;-83
2023/05/14 14:53:34;;;;;;;7.57;2.60;;;;;;;;;;6119792;23;20488;-83
2023/05/14 14:56:02;;;;;;;5.57;2.55;;;;;;;;;;6094084;23;20025;-82
2023/05/14 14:58:29;;;;;;;3.70;2.47;;;;;;;;;;6116260;23;20080;-85
2023/05/14 15:01:10;;;;;;;8.85;2.42;;;;;;;;;;6119001;23;20276;-86
2023/05/14 15:03:37;;;;;;;6.93;2.63;;;;;;;;;;6117717;23;20026;-85
2023/05/14 15:06:12;;;;;;;4.15;2.70;;;;;;;;;;6118107;23;20049;-85
2023/05/14 15:08:40;;;;;;;3.58;2.33;;;;;;;;;;6091055;23;20026;-85
2023/05/14 15:11:07;;;;;;;4.22;2.75;;;;;;;;;;6117708;23;20105;-85
2023/05/14 15:13:42;;;;;;;4.47;2.50;;;;;;;;;;6117611;23;20028;-85
2023/05/14 15:16:10;;;;;;;;;;;;;;;;;;6118492;23;20085;-85
2023/05/14 15:18:37;;;;;;;3.10;2.25;;;;;;;;;;6117846;23;19964;-86
2023/05/14 15:21:11;;;;;;;4.22;2.28;;;;;;;;;;6092488;23;20037;-84
2023/05/14 15:23:38;;;;;;;3.08;2.65;;;;;;;;;;6117016;23;20026;-85
2023/05/14 15:26:12;;;;;;;5.00;2.30;;;;;;;;;;6118814;23;20102;-84
2023/05/14 15:28:39;;;;;;;4.63;2.75;;;;;;;;;;6117281;23;20519;-84
2023/05/14 15:31:06;;;;;;;4.13;2.05;;;;;;;;;;6118349;23;20022;-84
2023/05/14 15:33:40;;;;;;;4.03;2.20;;;;;;;;;;6093483;23;20026;-84
2023/05/14 15:36:07;;;;;;;5.00;2.55;;;;;;;;;;6117725;23;20104;-84
2023/05/14 15:38:42;;;;;;;3.10;1.90;;;;;;;;;;6117157;23;20018;-84
2023/05/14 15:41:09;;;;;;;3.80;2.40;;;;;;;;;;6118971;23;20077;-84
2023/05/14 15:43:36;;;;;;;8.68;2.50;;;;;;;;;;6117869;23;20100;-84
2023/05/14 15:46:11;;;;;;;6.15;2.28;;;;;;;;;;6117236;23;20625;-87
2023/05/14 15:48:38;;;;;;;5.15;2.45;;;;;;;;;;6117217;23;20153;-85
2023/05/14 15:51:12;;;;;;;4.20;2.30;;;;;;;;;;6091284;23;20060;-85
2023/05/14 15:53:39;;;;;;;8.30;2.47;;;;;;;;;;6116680;23;20072;-84
2023/05/14 15:56:07;;;;;;;5.72;2.45;;;;;;;;;;6117528;23;20457;-84
2023/05/14 15:58:47;;;;;;;5.97;2.50;;;;;;;;;;6113709;23;20065;-85
2023/05/14 16:01:21;;;;;;;3.70;2.35;;;;;;;;;;6091526;23;20080;-85
2023/05/14 16:03:55;;;;;;;4.55;2.50;;;;;;;;;;6115803;23;20068;-84
2023/05/14 16:06:22;;;;;;;4.90;2.75;;;;;;;;;;6090622;23;20036;-85
2023/05/14 16:08:56;;;;;;;5.35;2.67;;;;;;;;;;6091873;23;20376;-85
2023/05/14 16:11:23;;;;;;;7.00;2.90;;;;;;;;;;6116202;23;20026;-84
2023/05/14 16:13:50;;;;;;;3.22;2.40;;;;;;;;;;6090719;23;20025;-84
2023/05/14 16:16:24;;;;;;;4.50;2.42;;;;;;;;;;6117234;23;20061;-84
2023/05/14 16:18:54;;;;;;;9.23;2.60;;;;;;;;;;6091979;23;20439;-84
2023/05/14 16:21:21;;;;;;;5.38;2.58;;;;;;;;;;6116317;23;20030;-84
2023/05/14 16:23:55;;;;;;;3.85;2.53;;;;;;;;;;6093926;23;20057;-84
2023/05/14 16:26:22;;;;;;;9.35;2.78;;;;;;;;;;6118871;23;20026;-84
2023/05/14 16:28:49;;;;;;;6.40;2.85;;;;;;;;;;6092578;23;20097;-84
2023/05/14 16:31:23;;;;;;;5.57;2.63;;;;;;;;;;6119274;23;20101;-84
2023/05/14 16:33:50;;;;;;;;;;;;;;;;;;6092528;23;20113;-83
2023/05/14 16:36:27;;;;;;;5.45;2.70;;;;;;;;;;6094175;23;20405;-84
2023/05/14 16:38:54;;;;;;;3.97;2.47;;;;;;;;;;6118768;23;20052;-84